Time;durP1;ratioP1;P1;durP2;ratioP2;P2;SDS_P1;SDS_P2;PMS_P1;PMS_P2;Temp;Humidity;BMP_temperature;BMP_pressure;BME280_temperature;BME280_humidity;BME280_pressure;Samples;Min_cycle;Max_cycle;Signal;HPM_P1;HPM_P2
2022/04/29 00:03:02;;;;;;;;;;;;;;;;;;;;;
2022/04/29 00:15:43;;;;;;;3.20;1.83;;;10.40;99.90;;;;;;4911749;28;20027;-88
2022/04/29 00:18:44;;;;;;;4.93;1.98;;;10.30;99.90;;;;;;4944425;28;20102;-89
2022/04/29 00:21:48;;;;;;;4.00;2.00;;;10.40;99.90;;;;;;4943027;29;20131;-89
2022/04/29 00:25:07;;;;;;;5.22;2.38;;;10.20;99.90;;;;;;4924089;29;20032;-89
2022/04/29 00:28:38;;;;;;;;;;;;;;;;;;;;;
2022/04/29 00:31:35;;;;;;;4.63;2.20;;;10.30;99.90;;;;;;4919436;29;20036;-88
2022/04/29 00:37:38;;;;;;;4.57;2.50;;;10.20;99.90;;;;;;4935988;29;20082;-89
2022/04/29 00:41:09;;;;;;;4.75;2.53;;;10.10;99.90;;;;;;4935656;29;20044;-90
2022/04/29 00:44:07;;;;;;;;;;;;;;;;;;;;;
2022/04/29 00:57:06;;;;;;;3.78;2.00;;;9.90;99.90;;;;;;919085;23;21885;-89
2022/04/29 01:00:27;;;;;;;6.28;2.38;;;9.90;99.90;;;;;;4940128;28;20110;-89
2022/04/29 01:06:27;;;;;;;4.60;1.80;;;9.80;99.90;;;;;;4845023;29;20053;-89
2022/04/29 01:09:30;;;;;;;;;;;;;;;;;;;;;
2022/04/29 01:12:42;;;;;;;5.40;2.50;;;9.90;99.90;;;;;;4934802;29;20036;-91
2022/04/29 01:15:46;;;;;;;4.78;2.30;;;9.80;99.90;;;;;;4933463;29;20454;-90
2022/04/29 01:18:38;;;;;;;7.63;2.50;;;9.70;99.90;;;;;;4922618;29;20035;-90
2022/04/29 01:21:33;;;;;;;5.68;2.65;;;9.80;99.90;;;;;;4942856;29;20031;-91
2022/04/29 01:25:35;;;;;;;;;;;;;;;;;;;;;
2022/04/29 01:28:33;;;;;;;;;;;;;;;;;;;;;
2022/04/29 02:52:31;;;;;;;3.70;2.28;;;8.90;99.90;;;;;;4523619;23;20051;-84
2022/04/29 02:54:57;;;;;;;4.30;2.35;;;9.10;99.90;;;;;;4965781;28;20026;-84
2022/04/29 02:57:22;;;;;;;4.38;2.60;;;9.30;99.90;;;;;;4969187;28;20035;-84
2022/04/29 02:59:48;;;;;;;5.60;2.67;;;8.80;99.90;;;;;;4942934;29;20055;-85
2022/04/29 03:02:14;;;;;;;4.93;2.70;;;8.80;99.90;;;;;;4945512;29;20059;-84
2022/04/29 03:04:39;;;;;;;5.90;2.65;;;8.80;99.90;;;;;;4922724;29;20039;-86
2022/04/29 03:07:05;;;;;;;5.70;2.92;;;8.70;99.90;;;;;;4928155;29;20055;-85
2022/04/29 03:09:31;;;;;;;5.25;2.35;;;8.80;99.90;;;;;;4943491;29;20024;-84
2022/04/29 03:11:57;;;;;;;6.00;2.60;;;8.70;99.90;;;;;;4930157;29;20036;-84
2022/04/29 03:14:22;;;;;;;4.97;2.47;;;8.90;99.90;;;;;;4927962;29;20034;-85
2022/04/29 03:16:48;;;;;;;5.68;3.00;;;8.70;99.90;;;;;;4931018;29;20551;-85
2022/04/29 03:19:14;;;;;;;5.97;2.25;;;8.70;99.90;;;;;;4942210;29;20486;-85
2022/04/29 03:21:40;;;;;;;5.07;2.60;;;8.70;99.90;;;;;;4931645;29;20031;-85
2022/04/29 03:24:06;;;;;;;6.70;2.65;;;8.80;99.90;;;;;;4941953;29;20031;-84
2022/04/29 03:26:31;;;;;;;5.25;2.58;;;8.70;99.90;;;;;;4929090;29;20036;-86
2022/04/29 03:28:57;;;;;;;4.85;2.70;;;8.70;99.90;;;;;;4933133;29;20034;-85
2022/04/29 03:31:23;;;;;;;5.03;2.58;;;8.60;99.90;;;;;;4946210;29;20222;-85
2022/04/29 03:33:48;;;;;;;5.38;2.80;;;8.60;99.90;;;;;;4934848;29;20147;-84
2022/04/29 03:36:14;;;;;;;5.55;2.75;;;8.60;99.90;;;;;;4952195;29;20038;-84
2022/04/29 03:38:40;;;;;;;5.28;2.38;;;8.70;99.90;;;;;;4947929;29;20040;-84
2022/04/29 03:41:07;;;;;;;5.55;3.20;;;8.60;99.90;;;;;;4929803;29;20117;-84
2022/04/29 03:43:33;;;;;;;5.63;2.78;;;8.60;99.90;;;;;;4928285;29;20039;-85
2022/04/29 03:45:59;;;;;;;6.45;3.10;;;8.50;99.90;;;;;;4922259;29;20178;-84
2022/04/29 03:48:25;;;;;;;5.70;3.00;;;8.60;99.90;;;;;;4932573;29;20038;-86
2022/04/29 03:50:51;;;;;;;5.35;2.95;;;8.60;99.90;;;;;;4933350;29;20023;-85
2022/04/29 03:53:17;;;;;;;8.07;3.10;;;8.50;99.90;;;;;;4937464;29;20034;-85
2022/04/29 03:55:43;;;;;;;6.28;2.95;;;8.50;99.90;;;;;;4953274;29;20031;-85
2022/04/29 03:58:08;;;;;;;6.35;2.88;;;8.80;99.90;;;;;;4933877;29;20127;-85
2022/04/29 04:00:34;;;;;;;6.07;2.65;;;8.50;99.90;;;;;;4952062;29;20031;-84
2022/04/29 04:03:05;;;;;;;5.63;2.90;;;8.60;99.90;;;;;;4938855;29;20035;-84
2022/04/29 04:05:31;;;;;;;6.35;2.63;;;8.50;99.90;;;;;;4950578;29;20038;-84
2022/04/29 04:07:57;;;;;;;5.20;2.67;;;8.50;99.90;;;;;;4950133;28;20406;-85
2022/04/29 04:10:23;;;;;;;5.95;2.97;;;8.50;99.90;;;;;;4929018;29;20023;-84
2022/04/29 04:12:50;;;;;;;4.78;2.50;;;8.60;99.90;;;;;;4931289;29;20040;-84
2022/04/29 04:15:18;;;;;;;6.53;3.28;;;8.70;99.90;;;;;;4937086;29;20118;-85
2022/04/29 04:17:45;;;;;;;5.20;2.83;;;8.50;99.90;;;;;;4951907;28;20031;-84
2022/04/29 04:20:12;;;;;;;5.05;2.40;;;8.50;99.90;;;;;;4949611;29;20023;-84
2022/04/29 04:22:38;;;;;;;5.82;3.15;;;8.50;99.90;;;;;;4950522;29;20397;-85
2022/04/29 04:25:05;;;;;;;5.57;3.05;;;8.50;99.90;;;;;;4934251;29;20031;-84
2022/04/29 04:27:32;;;;;;;6.00;3.20;;;8.50;99.90;;;;;;4937114;29;20031;-84
2022/04/29 04:29:59;;;;;;;5.22;2.58;;;8.50;99.90;;;;;;4930196;29;20538;-85
2022/04/29 04:32:25;;;;;;;6.43;2.85;;;8.50;99.90;;;;;;4936151;29;20143;-84
2022/04/29 04:34:57;;;;;;;5.07;2.80;;;8.60;99.90;;;;;;4934284;29;20024;-84
2022/04/29 04:37:27;;;;;;;6.68;3.00;;;8.60;99.90;;;;;;4930986;29;20062;-85
2022/04/29 04:39:54;;;;;;;6.20;2.90;;;8.60;99.90;;;;;;4952761;29;20031;-84
2022/04/29 04:42:21;;;;;;;5.45;2.97;;;8.70;99.90;;;;;;4929755;29;20034;-84
2022/04/29 04:44:48;;;;;;;7.20;3.30;;;8.70;99.90;;;;;;4932246;29;20739;-85
2022/04/29 04:47:14;;;;;;;6.53;3.15;;;8.70;99.90;;;;;;4933640;29;20028;-84
2022/04/29 04:49:40;;;;;;;5.20;2.60;;;8.70;99.90;;;;;;4933690;29;20114;-83
2022/04/29 04:52:06;;;;;;;6.97;2.85;;;8.80;99.90;;;;;;4932723;29;20119;-84
2022/04/29 04:54:32;;;;;;;6.78;3.00;;;8.80;99.90;;;;;;4932319;29;20042;-84
2022/04/29 04:56:58;;;;;;;6.05;3.05;;;8.90;99.90;;;;;;4950191;29;20023;-84
2022/04/29 04:59:24;;;;;;;6.93;3.50;;;8.90;99.90;;;;;;4945816;29;20087;-84
2022/04/29 05:01:49;;;;;;;7.82;3.28;;;9.10;99.90;;;;;;4931034;29;20031;-84
2022/04/29 05:04:15;;;;;;;7.95;3.13;;;9.00;99.90;;;;;;4926271;29;20106;-84
2022/04/29 05:06:41;;;;;;;6.97;3.10;;;9.10;99.90;;;;;;4914867;29;20020;-87
2022/04/29 05:09:08;;;;;;;6.22;3.35;;;9.20;99.90;;;;;;4906200;29;20099;-87
2022/04/29 05:16:41;;;;;;;5.35;3.13;;;9.50;99.90;;;;;;4964392;29;20059;-88
2022/04/29 05:19:12;;;;;;;5.25;3.00;;;9.60;99.90;;;;;;4958840;29;20087;-88
2022/04/29 05:21:39;;;;;;;6.05;3.30;;;9.60;99.90;;;;;;4946207;29;20023;-87
2022/04/29 05:24:05;;;;;;;5.72;2.80;;;9.70;99.90;;;;;;4964156;29;20035;-88
2022/04/29 05:26:33;;;;;;;5.32;2.80;;;9.70;99.90;;;;;;4942776;29;20031;-87
2022/04/29 05:28:58;;;;;;;5.68;2.90;;;9.70;99.90;;;;;;4941069;29;20027;-87
2022/04/29 05:31:24;;;;;;;4.97;3.05;;;9.70;99.90;;;;;;4958800;29;20029;-88
2022/04/29 05:33:50;;;;;;;4.72;2.63;;;10.00;99.90;;;;;;4943136;29;20677;-88
2022/04/29 05:36:16;;;;;;;5.13;2.63;;;10.10;99.90;;;;;;4956357;29;20062;-88
2022/04/29 05:44:19;;;;;;;5.25;2.67;;;9.80;99.90;;;;;;4963177;29;20070;-88
2022/04/29 05:46:45;;;;;;;7.70;3.22;;;9.90;99.90;;;;;;4938300;29;20032;-88
2022/04/29 05:49:20;;;;;;;6.55;2.67;;;9.90;99.90;;;;;;4945309;29;20034;-88
2022/04/29 05:51:45;;;;;;;5.45;3.22;;;10.10;99.90;;;;;;4944914;29;20031;-87
2022/04/29 05:54:16;;;;;;;5.50;2.85;;;10.10;99.90;;;;;;4942800;29;20035;-88
2022/04/29 05:56:42;;;;;;;7.65;2.92;;;10.00;99.90;;;;;;4943262;29;20027;-87
2022/04/29 05:59:07;;;;;;;5.10;2.88;;;10.10;99.90;;;;;;4948718;29;20035;-88
2022/04/29 06:01:33;;;;;;;5.75;2.92;;;10.10;99.90;;;;;;4939343;29;20032;-88
2022/04/29 06:03:58;;;;;;;6.07;2.65;;;10.10;99.90;;;;;;4939980;29;20023;-87
2022/04/29 06:06:26;;;;;;;5.57;2.88;;;10.20;99.90;;;;;;4957293;29;20015;-87
2022/04/29 06:08:52;;;;;;;5.68;3.47;;;10.40;99.90;;;;;;4937257;29;20067;-88
2022/04/29 06:11:19;;;;;;;5.38;2.53;;;10.50;99.90;;;;;;4956600;28;20042;-88
2022/04/29 06:13:44;;;;;;;5.72;3.10;;;10.60;99.90;;;;;;4939773;29;20035;-88
2022/04/29 06:16:11;;;;;;;5.25;2.70;;;10.80;99.90;;;;;;4940539;29;20035;-88
2022/04/29 06:18:37;;;;;;;6.93;3.40;;;11.10;99.90;;;;;;4953418;29;20039;-88
2022/04/29 06:21:02;;;;;;;5.93;3.08;;;11.60;99.90;;;;;;4954263;29;20057;-88
2022/04/29 06:23:28;;;;;;;5.28;2.60;;;11.50;99.90;;;;;;4938654;29;20122;-88
2022/04/29 06:25:54;;;;;;;5.45;3.10;;;11.80;99.90;;;;;;4950608;29;20050;-88
2022/04/29 06:28:19;;;;;;;6.40;3.03;;;11.90;99.90;;;;;;4950779;28;20059;-88
2022/04/29 06:30:45;;;;;;;5.53;2.85;;;11.90;99.90;;;;;;4935728;29;20521;-88
2022/04/29 06:33:11;;;;;;;4.57;2.67;;;11.90;99.90;;;;;;4939510;29;20039;-88
2022/04/29 06:35:42;;;;;;;5.35;2.85;;;11.80;99.90;;;;;;4954274;29;20032;-89
2022/04/29 06:38:09;;;;;;;5.20;2.83;;;11.50;99.90;;;;;;4929436;29;20485;-88
2022/04/29 06:40:36;;;;;;;5.07;2.70;;;11.30;99.90;;;;;;4940718;28;20034;-88
2022/04/29 06:43:02;;;;;;;5.70;2.80;;;11.50;99.90;;;;;;4953322;28;20166;-88
2022/04/29 07:06:59;;;;;;;;;;;;;;;;;;;;;
2022/04/29 07:14:06;;;;;;;;;;;;;;;;;;;;;
2022/04/29 09:26:28;;;;;;;3.45;1.63;;;19.70;85.50;;;;;;4871049;29;20124;-89
2022/04/29 09:29:24;;;;;;;3.50;1.40;;;19.30;79.90;;;;;;4905652;29;20529;-88
2022/04/29 09:32:11;;;;;;;3.25;1.60;;;19.40;81.20;;;;;;4899783;29;20031;-89
2022/04/29 09:48:31;;;;;;;2.75;1.30;;;20.20;76.60;;;;;;4916545;29;20452;-87
2022/04/29 09:50:59;;;;;;;;;;;20.30;75.00;;;;;;4917676;29;20031;-86
2022/04/29 09:54:36;;;;;;;6.30;1.80;;;20.20;74.50;;;;;;4913356;29;19969;-85
2022/04/29 09:57:27;;;;;;;2.35;0.93;;;20.20;72.80;;;;;;4879588;29;20041;-85
2022/04/29 10:00:33;;;;;;;2.45;1.10;;;19.80;72.90;;;;;;4917028;29;20087;-87
2022/04/29 10:10:30;;;;;;;6.28;1.10;;;19.20;71.90;;;;;;4916182;29;20693;-85
2022/04/29 10:13:49;;;;;;;1.75;1.02;;;19.40;70.30;;;;;;4908888;29;20072;-85
2022/04/29 10:27:58;;;;;;;;;;;;;;;;;;;;;
2022/04/29 10:42:09;;;;;;;;;;;;;;;;;;;;;
2022/04/29 10:48:45;;;;;;;3.10;1.00;;;20.30;67.40;;;;;;4890499;29;20028;-87
2022/04/29 10:51:38;;;;;;;4.30;1.25;;;20.60;67.20;;;;;;4902930;29;20327;-88
2022/04/29 10:54:32;;;;;;;2.17;1.08;;;20.40;66.30;;;;;;4907582;29;20079;-88
2022/04/29 10:58:02;;;;;;;;;;;;;;;;;;;;;
2022/04/29 11:01:02;;;;;;;;;;;;;;;;;;;;;
2022/04/29 11:04:26;;;;;;;2.45;1.05;;;20.10;67.00;;;;;;4917569;29;20028;-88
2022/04/29 11:11:20;;;;;;;1.88;0.90;;;20.90;66.20;;;;;;4866720;29;20040;-88
2022/04/29 11:14:00;;;;;;;1.50;0.80;;;21.30;65.20;;;;;;4885899;29;20048;-88
2022/04/29 11:16:28;;;;;;;2.20;1.00;;;21.70;64.70;;;;;;4893166;29;20031;-88
2022/04/29 11:19:41;;;;;;;;;;;;;;;;;;;;;
2022/04/29 11:28:36;;;;;;;3.08;1.30;;;21.90;60.70;;;;;;4914203;29;20493;-87
2022/04/29 11:31:19;;;;;;;2.28;1.15;;;21.90;61.70;;;;;;4898836;29;20032;-87
2022/04/29 11:35:00;;;;;;;2.53;1.00;;;21.60;61.20;;;;;;4874412;29;20045;-87
2022/04/29 11:37:23;;;;;;;2.13;1.15;;;21.50;64.10;;;;;;4870683;29;20029;-88
2022/04/29 11:39:50;;;;;;;2.35;1.20;;;21.50;61.90;;;;;;4873312;29;20029;-88
2022/04/29 11:42:27;;;;;;;2.28;1.17;;;21.10;62.60;;;;;;4909690;29;20064;-88
2022/04/29 11:44:56;;;;;;;2.25;1.05;;;20.90;63.80;;;;;;4896907;29;20056;-89
2022/04/29 11:47:30;;;;;;;3.10;1.17;;;20.90;63.00;;;;;;4895688;29;20099;-85
2022/04/29 11:50:26;;;;;;;2.22;1.15;;;20.60;63.90;;;;;;4913338;29;20051;-88
2022/04/29 11:53:12;;;;;;;2.03;1.00;;;20.70;64.50;;;;;;4912132;29;20110;-86
2022/04/29 11:55:50;;;;;;;2.70;1.40;;;20.60;65.50;;;;;;4912157;29;20071;-85
2022/04/29 11:58:22;;;;;;;2.15;1.00;;;20.80;64.00;;;;;;4911039;29;20028;-87
2022/04/29 12:00:54;;;;;;;3.45;1.35;;;20.90;62.20;;;;;;4919618;29;20078;-90
2022/04/29 12:03:27;;;;;;;2.55;1.20;;;20.80;62.20;;;;;;4920574;29;20138;-88
2022/04/29 12:05:53;;;;;;;2.15;0.85;;;20.90;63.00;;;;;;4898166;29;20039;-88
2022/04/29 12:08:45;;;;;;;2.67;1.27;;;20.80;62.50;;;;;;4912147;29;20447;-88
2022/04/29 12:11:46;;;;;;;;;;;20.50;62.80;;;;;;4897953;29;20028;-90
2022/04/29 12:14:23;;;;;;;3.60;1.20;;;20.50;63.80;;;;;;4871903;29;20357;-91
2022/04/29 12:17:15;;;;;;;2.13;1.20;;;20.50;63.10;;;;;;4901548;29;20128;-88
2022/04/29 12:19:56;;;;;;;2.53;1.15;;;20.40;63.60;;;;;;4898166;29;20032;-87
2022/04/29 12:23:16;;;;;;;;;;;;;;;;;;;;;
2022/04/29 12:29:23;;;;;;;2.17;1.00;;;20.30;63.20;;;;;;4904585;29;20567;-88
2022/04/29 12:37:43;;;;;;;3.35;1.15;;;20.00;64.30;;;;;;4927442;29;20659;-87
2022/04/29 12:40:15;;;;;;;2.40;1.40;;;20.10;65.20;;;;;;4907480;29;20123;-85
2022/04/29 12:42:46;;;;;;;2.78;1.25;;;20.20;64.60;;;;;;4900014;29;20506;-85
2022/04/29 12:45:18;;;;;;;2.53;1.30;;;20.60;64.80;;;;;;4899710;29;20036;-86
2022/04/29 12:47:50;;;;;;;3.53;1.30;;;21.10;64.00;;;;;;4929018;29;20044;-86
2022/04/29 12:50:55;;;;;;;3.10;1.30;;;21.60;63.20;;;;;;4934116;28;20023;-87
2022/04/29 12:57:09;;;;;;;;;;;22.70;60.50;;;;;;4927570;29;20082;-85
2022/04/29 12:59:56;;;;;;;;;;;;;;;;;;;;;
2022/04/29 13:02:43;;;;;;;;;;;;;;;;;;;;;
2022/04/29 13:05:14;;;;;;;2.17;1.02;;;22.60;59.30;;;;;;4924752;29;20377;-86
2022/04/29 13:07:52;;;;;;;3.67;1.30;;;22.50;59.60;;;;;;4934304;29;20037;-86
2022/04/29 13:10:24;;;;;;;2.50;1.25;;;22.50;60.30;;;;;;4942694;29;20042;-86
2022/04/29 13:13:02;;;;;;;3.67;1.58;;;22.50;61.00;;;;;;4926655;29;20028;-86
2022/04/29 13:15:30;;;;;;;3.60;1.42;;;22.60;58.60;;;;;;4917731;29;20468;-86
2022/04/29 13:18:08;;;;;;;3.13;1.20;;;23.00;60.80;;;;;;4928553;29;20039;-86
2022/04/29 13:20:53;;;;;;;3.17;1.13;;;23.50;58.20;;;;;;4910658;29;20087;-86
2022/04/29 13:25:56;;;;;;;3.03;1.13;;;23.90;57.60;;;;;;4174713;27;20142;-85
2022/04/29 13:28:22;;;;;;;2.60;1.38;;;23.90;56.00;;;;;;4947682;29;20026;-87
2022/04/29 13:30:48;;;;;;;6.95;1.50;;;24.10;55.90;;;;;;4935470;29;20023;-88
2022/04/29 13:33:14;;;;;;;2.05;1.17;;;24.20;56.50;;;;;;4932037;29;20027;-88
2022/04/29 13:35:40;;;;;;;2.60;1.60;;;24.00;56.10;;;;;;4914473;29;20462;-88
2022/04/29 13:38:06;;;;;;;2.83;1.42;;;23.70;55.80;;;;;;4897754;29;20028;-88
2022/04/29 13:40:33;;;;;;;3.33;1.48;;;23.00;56.40;;;;;;4919245;29;20028;-88
2022/04/29 13:42:59;;;;;;;3.22;1.80;;;23.00;58.90;;;;;;4918008;29;20507;-87
2022/04/29 13:45:25;;;;;;;3.53;1.58;;;22.70;59.30;;;;;;4921298;29;20052;-88
2022/04/29 13:47:51;;;;;;;2.72;1.40;;;22.80;59.30;;;;;;4897592;29;20067;-88
2022/04/29 13:50:17;;;;;;;2.65;1.40;;;22.40;58.00;;;;;;4932312;29;20100;-88
2022/04/29 13:55:28;;;;;;;3.00;1.55;;;22.00;59.60;;;;;;4935966;29;20600;-88
2022/04/29 13:57:53;;;;;;;2.45;1.27;;;21.50;58.50;;;;;;4941230;29;20028;-89
2022/04/29 14:00:19;;;;;;;2.20;1.20;;;21.30;59.60;;;;;;4934877;29;20050;-88
2022/04/29 14:02:45;;;;;;;2.58;0.93;;;21.20;59.20;;;;;;4927480;29;20068;-88
2022/04/29 14:05:12;;;;;;;2.42;0.93;;;21.00;58.80;;;;;;4940230;29;20024;-89
2022/04/29 14:07:41;;;;;;;2.30;1.20;;;21.00;60.30;;;;;;4944801;29;20020;-89
2022/04/29 14:10:08;;;;;;;3.97;1.30;;;20.80;59.50;;;;;;4932696;29;20106;-89
2022/04/29 14:12:38;;;;;;;3.08;1.30;;;20.80;60.40;;;;;;4946664;29;20054;-89
2022/04/29 14:15:04;;;;;;;2.80;1.35;;;21.00;62.30;;;;;;4928767;29;20027;-88
2022/04/29 14:17:30;;;;;;;2.90;1.55;;;21.10;59.70;;;;;;4945450;29;20039;-88
2022/04/29 14:19:56;;;;;;;3.30;1.50;;;21.00;59.40;;;;;;4934436;29;20039;-88
2022/04/29 14:22:21;;;;;;;2.95;1.20;;;21.10;60.50;;;;;;4931674;29;20099;-89
2022/04/29 14:24:47;;;;;;;2.65;1.30;;;21.40;58.70;;;;;;4923560;29;20036;-89
2022/04/29 14:27:13;;;;;;;3.20;1.23;;;21.60;59.20;;;;;;4922302;29;20475;-88
2022/04/29 14:29:42;;;;;;;3.15;1.48;;;21.60;58.30;;;;;;4904444;29;20050;-88
2022/04/29 14:32:13;;;;;;;3.13;1.20;;;21.30;59.00;;;;;;4929864;29;20051;-88
2022/04/29 14:34:39;;;;;;;2.25;1.15;;;21.20;58.70;;;;;;4920060;29;20036;-88
2022/04/29 14:37:14;;;;;;;3.33;1.40;;;21.10;58.70;;;;;;4935229;29;20106;-90
2022/04/29 14:39:49;;;;;;;5.13;1.50;;;20.90;59.90;;;;;;4933476;29;20417;-88
2022/04/29 14:42:15;;;;;;;2.58;1.35;;;21.30;61.20;;;;;;4914429;29;20039;-88
2022/04/29 14:44:41;;;;;;;3.25;1.05;;;21.50;58.50;;;;;;4933191;29;20027;-89
2022/04/29 14:47:15;;;;;;;2.72;1.30;;;21.80;59.20;;;;;;4905639;29;20035;-89
2022/04/29 14:49:41;;;;;;;1.90;1.10;;;21.90;59.70;;;;;;4933846;29;20510;-87
2022/04/29 14:52:08;;;;;;;2.65;1.23;;;21.60;58.70;;;;;;4936584;29;20031;-87
2022/04/29 14:54:35;;;;;;;2.25;1.25;;;21.10;57.70;;;;;;4935131;29;20028;-85
2022/04/29 14:57:01;;;;;;;1.85;0.93;;;20.90;59.00;;;;;;4936812;29;20060;-87
2022/04/29 14:59:26;;;;;;;2.63;1.10;;;20.90;60.60;;;;;;4925445;29;20028;-86
2022/04/29 15:01:53;;;;;;;2.70;1.33;;;20.80;60.50;;;;;;4932687;29;20039;-86
2022/04/29 15:04:19;;;;;;;3.10;1.20;;;20.70;60.30;;;;;;4912474;29;20032;-86
2022/04/29 15:06:47;;;;;;;5.13;1.45;;;20.80;60.30;;;;;;4915993;29;20561;-85
2022/04/29 15:17:36;;;;;;;2.40;1.20;;;20.80;61.20;;;;;;4917938;29;20034;-86
2022/04/29 15:20:03;;;;;;;2.03;0.82;;;20.70;60.60;;;;;;4922886;29;20036;-86
2022/04/29 15:22:29;;;;;;;3.28;1.08;;;20.80;60.20;;;;;;4933913;29;20577;-87
2022/04/29 15:24:54;;;;;;;2.17;1.00;;;20.80;60.80;;;;;;4908215;29;20108;-86
2022/04/29 15:27:21;;;;;;;3.55;1.08;;;20.80;60.40;;;;;;4915819;29;20513;-86
2022/04/29 15:29:50;;;;;;;2.03;1.08;;;20.60;59.30;;;;;;4932570;29;20055;-87
2022/04/29 15:32:15;;;;;;;4.35;1.42;;;20.70;60.90;;;;;;4917497;29;20164;-86
2022/04/29 15:34:42;;;;;;;3.30;1.50;;;20.50;59.20;;;;;;4916555;29;20105;-86
2022/04/29 15:37:07;;;;;;;2.70;1.20;;;20.40;58.00;;;;;;4915672;29;20465;-86
2022/04/29 15:39:33;;;;;;;2.05;0.85;;;20.50;60.00;;;;;;4902058;29;20118;-86
2022/04/29 15:42:00;;;;;;;3.67;1.23;;;20.50;59.10;;;;;;4911600;29;20028;-86
2022/04/29 15:44:31;;;;;;;2.17;1.20;;;20.50;59.10;;;;;;4939063;29;20027;-86
2022/04/29 15:46:57;;;;;;;1.30;0.70;;;20.60;59.80;;;;;;4920162;29;20028;-87
2022/04/29 15:49:22;;;;;;;2.13;1.08;;;20.60;60.40;;;;;;4945186;29;20023;-87
2022/04/29 15:51:48;;;;;;;3.10;1.33;;;20.60;60.50;;;;;;4930359;29;20019;-87
2022/04/29 15:54:14;;;;;;;3.00;1.25;;;20.50;59.60;;;;;;4946054;28;20173;-86
2022/04/29 15:56:39;;;;;;;1.63;0.80;;;20.50;58.60;;;;;;4944456;29;20039;-86
2022/04/29 15:59:05;;;;;;;3.45;1.38;;;20.40;60.60;;;;;;4924185;29;20118;-86
2022/04/29 16:01:32;;;;;;;3.10;1.42;;;20.20;60.70;;;;;;4916813;29;20127;-87
2022/04/29 16:03:58;;;;;;;2.60;1.20;;;20.10;61.70;;;;;;4922417;29;20096;-85
2022/04/29 16:06:25;;;;;;;2.80;1.25;;;20.10;62.60;;;;;;4915325;29;20028;-87
2022/04/29 16:08:50;;;;;;;2.83;1.35;;;20.00;61.80;;;;;;4933662;29;20435;-87
2022/04/29 16:11:16;;;;;;;3.55;1.85;;;19.90;62.00;;;;;;4916016;29;20024;-87
2022/04/29 16:13:42;;;;;;;3.63;1.48;;;19.70;61.40;;;;;;4932810;29;20417;-86
2022/04/29 16:16:09;;;;;;;2.75;1.13;;;19.70;61.60;;;;;;4933524;29;20051;-85
2022/04/29 16:21:19;;;;;;;3.22;1.15;;;19.50;62.30;;;;;;4913878;29;20135;-87
2022/04/29 16:26:29;;;;;;;2.80;1.20;;;19.20;61.60;;;;;;4930955;29;20043;-87
2022/04/29 16:28:56;;;;;;;4.50;1.60;;;19.20;61.70;;;;;;4932763;29;20032;-86
2022/04/29 16:31:22;;;;;;;2.90;1.30;;;19.30;62.40;;;;;;4933829;29;20555;-87
2022/04/29 16:33:51;;;;;;;3.40;1.80;;;19.30;63.30;;;;;;4916853;29;20131;-87
2022/04/29 16:36:18;;;;;;;2.28;1.02;;;19.30;63.70;;;;;;4933464;29;20055;-88
2022/04/29 16:38:46;;;;;;;4.57;1.58;;;19.40;63.40;;;;;;4931706;29;20070;-87
2022/04/29 16:41:13;;;;;;;2.80;1.33;;;19.40;63.90;;;;;;4896767;29;20128;-88
2022/04/29 16:43:41;;;;;;;3.00;1.08;;;19.40;64.60;;;;;;4915652;29;20483;-87
2022/04/29 16:46:10;;;;;;;3.03;1.55;;;19.40;63.80;;;;;;4932721;29;20024;-87
2022/04/29 16:48:39;;;;;;;2.80;1.00;;;19.40;64.00;;;;;;4916203;29;20406;-87
2022/04/29 16:51:05;;;;;;;3.80;1.48;;;19.40;64.20;;;;;;4915988;29;20603;-87
2022/04/29 16:53:35;;;;;;;3.40;1.38;;;19.40;64.50;;;;;;4933751;29;20036;-86
2022/04/29 16:56:01;;;;;;;2.75;1.40;;;19.40;64.70;;;;;;4936354;29;20516;-86
2022/04/29 16:58:42;;;;;;;3.67;1.80;;;19.40;64.20;;;;;;4936387;29;20111;-88
2022/04/29 17:01:09;;;;;;;3.85;1.63;;;19.30;62.70;;;;;;4921068;29;20050;-87
2022/04/29 17:03:35;;;;;;;5.07;1.80;;;19.20;64.30;;;;;;4935906;29;20111;-87
2022/04/29 17:06:01;;;;;;;3.05;1.48;;;19.10;64.50;;;;;;4915147;29;20123;-87
2022/04/29 17:08:28;;;;;;;2.90;1.67;;;19.10;65.10;;;;;;4936114;29;20020;-87
2022/04/29 17:11:00;;;;;;;4.00;2.00;;;19.00;66.20;;;;;;4937000;29;20036;-86
2022/04/29 17:13:27;;;;;;;3.05;1.45;;;18.90;66.20;;;;;;4921954;29;20032;-86
2022/04/29 17:15:53;;;;;;;3.42;1.80;;;18.80;67.30;;;;;;4937721;29;20078;-87
2022/04/29 17:18:19;;;;;;;3.22;1.33;;;18.80;67.50;;;;;;4919494;29;20533;-86
2022/04/29 17:20:45;;;;;;;3.03;1.17;;;18.70;68.00;;;;;;4921161;29;20523;-86
2022/04/29 17:23:11;;;;;;;2.88;1.10;;;18.60;67.80;;;;;;4930718;29;20036;-85
2022/04/29 17:25:38;;;;;;;3.33;1.30;;;18.50;68.30;;;;;;4917393;29;20064;-85
2022/04/29 17:28:04;;;;;;;3.33;1.33;;;18.30;68.20;;;;;;4933824;29;20055;-86
2022/04/29 17:30:30;;;;;;;4.22;1.60;;;18.20;69.20;;;;;;4921435;29;20474;-86
2022/04/29 17:32:56;;;;;;;2.83;1.25;;;18.00;69.50;;;;;;4926465;29;20028;-85
2022/04/29 17:35:22;;;;;;;2.28;1.38;;;17.90;69.60;;;;;;4915665;29;20075;-86
2022/04/29 17:37:48;;;;;;;2.75;1.23;;;18.10;69.60;;;;;;4915458;29;20030;-86
2022/04/29 17:43:00;;;;;;;2.47;1.13;;;17.90;70.50;;;;;;4935548;29;20094;-86
2022/04/29 17:45:28;;;;;;;2.72;1.00;;;17.90;70.90;;;;;;4935640;29;20032;-85
2022/04/29 17:47:54;;;;;;;2.10;1.08;;;17.90;70.90;;;;;;4918927;29;20036;-86
2022/04/29 17:50:21;;;;;;;2.85;1.20;;;17.80;70.80;;;;;;4915383;29;20032;-86
2022/04/29 17:52:53;;;;;;;3.00;1.20;;;17.80;71.90;;;;;;4899086;29;20489;-86
2022/04/29 17:55:25;;;;;;;3.63;1.50;;;17.70;72.00;;;;;;4899342;29;20071;-86
2022/04/29 17:57:51;;;;;;;3.45;1.33;;;17.70;71.80;;;;;;4921906;29;20032;-84
2022/04/29 18:00:17;;;;;;;3.38;1.52;;;17.60;71.90;;;;;;4934243;29;20106;-85
2022/04/29 18:02:45;;;;;;;3.58;1.33;;;17.50;71.80;;;;;;4917917;29;20028;-86
2022/04/29 18:05:11;;;;;;;2.22;1.23;;;17.50;71.80;;;;;;4934295;29;20028;-86
2022/04/29 18:07:38;;;;;;;5.93;1.55;;;17.50;71.30;;;;;;4927662;29;20163;-86
2022/04/29 18:10:05;;;;;;;3.63;1.20;;;17.40;72.40;;;;;;4918108;29;20031;-85
2022/04/29 18:12:32;;;;;;;2.88;1.20;;;17.30;72.10;;;;;;4935964;29;20019;-86
2022/04/29 18:15:01;;;;;;;3.20;1.40;;;17.20;73.10;;;;;;4921189;29;20027;-86
2022/04/29 18:17:28;;;;;;;3.65;1.40;;;17.10;73.00;;;;;;4935011;29;20023;-85
2022/04/29 18:19:54;;;;;;;3.13;1.55;;;17.00;72.80;;;;;;4922849;29;20139;-86
2022/04/29 18:22:20;;;;;;;4.25;1.63;;;17.00;72.30;;;;;;4918407;29;20455;-85
2022/04/29 18:24:48;;;;;;;2.78;1.40;;;16.90;73.50;;;;;;4910278;29;20135;-84
2022/04/29 18:27:19;;;;;;;2.97;1.60;;;16.80;73.60;;;;;;4915879;29;20035;-86
2022/04/29 18:29:45;;;;;;;;;;;16.70;74.10;;;;;;4918437;29;20494;-86
2022/04/29 18:32:11;;;;;;;2.95;1.60;;;16.70;74.70;;;;;;4916203;29;19967;-85
2022/04/29 18:34:38;;;;;;;3.55;1.88;;;16.60;74.60;;;;;;4917566;29;20497;-85
2022/04/29 18:37:05;;;;;;;5.50;2.17;;;16.50;75.00;;;;;;4899008;29;20115;-86
2022/04/29 18:39:32;;;;;;;5.05;2.10;;;16.50;75.70;;;;;;4916860;29;20114;-83
2022/04/29 18:41:59;;;;;;;4.97;2.13;;;16.40;76.20;;;;;;4932126;29;20084;-85
2022/04/29 18:44:25;;;;;;;4.30;2.17;;;16.30;75.60;;;;;;4927542;29;20032;-85
2022/04/29 18:46:52;;;;;;;5.40;2.45;;;16.30;75.60;;;;;;4931630;29;20043;-85
2022/04/29 18:49:21;;;;;;;4.88;2.30;;;16.30;75.80;;;;;;4901191;29;21450;-86
2022/04/29 18:51:47;;;;;;;3.72;1.63;;;16.20;76.60;;;;;;4917514;29;20035;-85
2022/04/29 18:54:13;;;;;;;3.90;2.03;;;16.10;76.90;;;;;;4933501;29;20043;-86
2022/04/29 18:56:38;;;;;;;5.78;2.10;;;16.10;77.40;;;;;;4933160;29;20063;-86
2022/04/29 18:59:04;;;;;;;4.07;1.63;;;16.10;77.80;;;;;;4933965;29;20593;-85
2022/04/29 19:01:32;;;;;;;4.43;1.63;;;16.00;77.60;;;;;;4929412;29;20028;-86
2022/04/29 19:03:58;;;;;;;4.20;1.85;;;15.90;77.40;;;;;;4913151;29;20035;-85
2022/04/29 19:06:24;;;;;;;7.40;2.60;;;16.00;77.10;;;;;;4917454;29;20055;-86
2022/04/29 19:08:49;;;;;;;6.43;2.97;;;15.90;75.90;;;;;;4917426;29;20122;-86
2022/04/29 19:11:17;;;;;;;5.57;2.70;;;15.80;76.20;;;;;;4916673;29;20051;-86
2022/04/29 19:13:46;;;;;;;3.85;1.90;;;15.80;74.90;;;;;;4916658;29;20561;-86
2022/04/29 19:16:11;;;;;;;3.40;1.77;;;15.80;76.30;;;;;;4933228;29;20108;-85
2022/04/29 19:18:53;;;;;;;6.63;1.80;;;15.80;75.50;;;;;;4916919;29;20043;-86
2022/04/29 19:21:19;;;;;;;4.20;1.90;;;15.70;75.70;;;;;;4934407;29;20059;-84
2022/04/29 19:23:44;;;;;;;4.35;1.90;;;15.70;75.90;;;;;;4916630;29;20510;-85
2022/04/29 19:26:12;;;;;;;3.72;1.77;;;15.60;75.70;;;;;;4906527;29;20036;-85
2022/04/29 20:03:52;;;;;;;3.85;1.92;;;15.10;77.00;;;;;;4880994;29;20160;-86
2022/04/29 20:10:41;;;;;;;3.50;1.58;;;15.10;78.10;;;;;;4874215;29;20114;-86
2022/04/29 20:14:04;;;;;;;3.60;1.92;;;15.20;78.10;;;;;;4910370;29;20063;-86
2022/04/29 20:17:42;;;;;;;;;;;;;;;;;;;;;
2022/04/29 20:20:58;;;;;;;3.30;1.70;;;14.90;78.30;;;;;;5060117;23;20546;-86
2022/04/29 20:32:08;;;;;;;;;;;;;;;;;;;;;
2022/04/29 20:38:16;;;;;;;4.03;1.58;;;14.70;82.00;;;;;;4859710;29;20029;-84
2022/04/29 20:46:10;;;;;;;3.75;1.75;;;14.60;83.10;;;;;;4915343;29;20162;-85
2022/04/29 20:48:36;;;;;;;4.22;2.10;;;14.50;84.20;;;;;;4928383;29;20032;-84